Time;durP1;ratioP1;P1;durP2;ratioP2;P2;SDS_P1;SDS_P2;PMS_P1;PMS_P2;Temp;Humidity;BMP_temperature;BMP_pressure;BME280_temperature;BME280_humidity;BME280_pressure;Samples;Min_cycle;Max_cycle;Signal;HPM_P1;HPM_P2
2023/08/30 00:02:05;;;;;;;4.72;1.85;;;;;;;22.25;60.28;100043.03;6030726;23;20037;-79
2023/08/30 00:05:03;;;;;;;6.10;2.22;;;;;;;22.18;61.29;100037.66;6080007;23;20026;-78
2023/08/30 00:07:30;;;;;;;8.98;2.42;;;;;;;22.20;60.95;100057.22;6095903;23;20474;-79
2023/08/30 00:09:58;;;;;;;5.57;2.20;;;;;;;22.18;60.80;100059.28;6047303;23;20018;-78
2023/08/30 00:12:25;;;;;;;7.35;2.60;;;;;;;22.05;60.80;100062.97;6060739;23;20077;-79
2023/08/30 00:14:54;;;;;;;3.25;2.20;;;;;;;21.96;61.08;100059.72;6069148;23;20371;-79
2023/08/30 00:17:22;;;;;;;4.88;1.98;;;;;;;21.92;61.60;100057.72;6059660;23;20155;-79
2023/08/30 00:19:50;;;;;;;12.45;2.92;;;;;;;21.77;61.93;100055.38;6076297;23;20022;-77
2023/08/30 00:22:21;;;;;;;7.15;2.47;;;;;;;21.55;62.39;100044.16;6069643;23;20081;-78
2023/08/30 00:24:48;;;;;;;8.98;2.70;;;;;;;21.60;62.54;100046.19;6054523;23;20111;-79
2023/08/30 00:27:20;;;;;;;12.75;2.67;;;;;;;21.64;62.88;100066.31;6074959;23;20049;-79
2023/08/30 00:29:47;;;;;;;7.22;2.63;;;;;;;21.32;63.29;100015.06;6064278;23;20223;-79
2023/08/30 00:32:16;;;;;;;10.23;4.20;;;;;;;21.60;63.21;100057.00;6066107;23;20529;-79
2023/08/30 00:34:43;;;;;;;7.35;2.97;;;;;;;21.45;63.21;100038.44;6044569;23;20049;-79
2023/08/30 00:37:12;;;;;;;7.47;2.88;;;;;;;21.45;63.65;100060.03;6069238;23;20513;-80
2023/08/30 00:39:39;;;;;;;10.25;2.13;;;;;;;21.39;63.80;100056.34;6063158;23;20054;-79
2023/08/30 00:42:07;;;;;;;6.20;2.78;;;;;;;20.99;63.55;99991.84;6073323;23;20594;-80
2023/08/30 00:44:37;;;;;;;7.32;2.67;;;;;;;21.30;63.84;100046.84;6072891;23;20391;-79
2023/08/30 00:47:04;;;;;;;6.10;2.47;;;;;;;21.06;64.41;100014.22;6071030;23;20066;-79
2023/08/30 00:49:31;;;;;;;5.20;2.40;;;;;;;21.35;65.19;100055.09;6075177;23;20374;-78
2023/08/30 00:52:01;;;;;;;6.82;1.98;;;;;;;21.28;64.56;100032.72;6068368;23;20101;-76
2023/08/30 00:54:28;;;;;;;9.18;3.08;;;;;;;21.41;64.32;100048.88;6064250;23;20089;-78
2023/08/30 00:56:57;;;;;;;4.40;2.50;;;;;;;21.23;63.88;100019.06;6067159;23;20029;-77
2023/08/30 00:59:24;;;;;;;5.65;2.08;;;;;;;21.40;63.34;100047.19;6047842;23;20532;-78
2023/08/30 01:01:53;;;;;;;8.77;2.72;;;;;;;21.36;63.03;100054.06;6062124;23;20018;-79
2023/08/30 01:04:20;;;;;;;7.50;2.22;;;;;;;21.37;63.03;100053.00;6139596;23;20464;-77
2023/08/30 01:06:48;;;;;;;2.30;1.65;;;;;;;21.45;63.15;100066.25;6094925;23;20270;-79
2023/08/30 01:09:16;;;;;;;3.67;1.80;;;;;;;21.46;62.86;100062.53;6101363;23;20123;-78
2023/08/30 01:12:10;;;;;;;6.85;1.92;;;;;;;21.44;63.13;100059.22;6117715;23;20164;-78
2023/08/30 01:14:43;;;;;;;3.40;2.13;;;;;;;21.33;63.00;100038.28;6095879;23;20365;-78
2023/08/30 01:17:14;;;;;;;9.20;2.05;;;;;;;21.29;63.21;100035.22;6121796;23;20060;-80
2023/08/30 01:19:49;;;;;;;6.60;2.25;;;;;;;21.42;63.59;100049.69;6115233;23;20025;-79
2023/08/30 01:22:38;;;;;;;5.45;1.92;;;;;;;21.49;63.27;100039.66;6149073;23;20052;-79
2023/08/30 01:25:23;;;;;;;6.30;2.00;;;;;;;21.59;63.06;100044.56;6122414;23;20021;-79
2023/08/30 01:27:51;;;;;;;4.25;1.73;;;;;;;21.61;64.15;100023.56;6121929;23;20344;-79
2023/08/30 01:30:20;;;;;;;5.80;2.03;;;;;;;21.85;63.36;100047.00;6115705;23;20024;-78
2023/08/30 01:32:50;;;;;;;3.20;1.67;;;;;;;21.63;62.90;100007.94;6137431;23;20068;-79
2023/08/30 01:35:19;;;;;;;7.30;2.53;;;;;;;21.72;62.35;100036.31;6119055;23;20021;-80
2023/08/30 01:37:49;;;;;;;7.47;2.38;;;;;;;21.61;62.63;100037.06;6127522;23;20435;-80
2023/08/30 01:40:20;;;;;;;5.63;2.15;;;;;;;21.52;63.14;100025.69;6114668;23;20021;-79
2023/08/30 01:42:48;;;;;;;;;;;;;;;21.59;62.10;100045.38;6157800;23;20013;-78
2023/08/30 01:45:16;;;;;;;2.65;1.65;;;;;;;21.58;62.59;100037.47;6148164;23;20355;-80
2023/08/30 01:47:44;;;;;;;3.95;1.60;;;;;;;21.59;63.17;100044.56;6121324;23;20396;-78
2023/08/30 01:50:12;;;;;;;3.35;1.50;;;;;;;21.54;62.05;100016.31;6127129;23;20021;-77
2023/08/30 01:52:39;;;;;;;2.42;1.48;;;;;;;21.62;62.35;100044.09;6114320;23;20029;-78
2023/08/30 01:55:08;;;;;;;6.20;1.40;;;;;;;21.41;62.33;100007.50;6115736;23;20063;-78
2023/08/30 01:57:35;;;;;;;4.47;1.40;;;;;;;21.47;62.29;100012.84;6137734;23;20048;-80
2023/08/30 02:00:04;;;;;;;2.45;1.27;;;;;;;21.70;61.97;100046.50;6132492;23;20036;-80
2023/08/30 02:02:33;;;;;;;3.90;1.10;;;;;;;21.71;61.70;100040.06;6145419;23;20390;-78
2023/08/30 02:05:00;;;;;;;2.08;1.20;;;;;;;21.47;61.30;100003.94;6116531;23;20056;-78
2023/08/30 02:07:55;;;;;;;6.35;1.33;;;;;;;21.59;61.25;100041.84;6136185;23;20357;-78
2023/08/30 02:10:35;;;;;;;1.65;1.10;;;;;;;21.61;61.00;100037.88;6149618;23;20053;-79
2023/08/30 02:13:04;;;;;;;3.58;1.33;;;;;;;21.67;61.70;100039.66;6153725;23;20064;-78
2023/08/30 02:15:38;;;;;;;1.75;0.98;;;;;;;21.74;61.56;100031.50;6165420;23;20048;-79
2023/08/30 02:18:06;;;;;;;3.22;1.55;;;;;;;21.84;61.90;100034.50;6153060;23;20022;-81
2023/08/30 02:20:33;;;;;;;3.22;1.35;;;;;;;22.01;62.81;100050.97;6134738;23;20025;-79
2023/08/30 02:23:00;;;;;;;2.58;1.23;;;;;;;21.72;61.45;99996.63;6126088;23;20209;-79
2023/08/30 02:25:39;;;;;;;4.95;1.13;;;;;;;21.96;60.38;100043.53;6121868;23;20595;-78
2023/08/30 02:28:06;;;;;;;2.97;1.35;;;;;;;21.73;59.72;100013.66;6137270;23;20217;-78
2023/08/30 02:30:34;;;;;;;4.63;1.48;;;;;;;21.68;59.89;100013.50;6127471;23;20466;-79
2023/08/30 02:33:01;;;;;;;1.63;1.00;;;;;;;21.61;60.17;100026.25;6106062;23;20342;-78
2023/08/30 02:35:27;;;;;;;4.60;1.20;;;;;;;21.53;60.95;100030.88;6108364;23;20027;-79
2023/08/30 02:37:54;;;;;;;2.47;1.40;;;;;;;21.66;60.35;100056.13;6116063;23;20021;-78
2023/08/30 02:40:21;;;;;;;2.63;1.35;;;;;;;21.53;60.46;100046.25;6105856;23;20021;-79
2023/08/30 02:42:48;;;;;;;2.45;0.90;;;;;;;21.44;60.61;100026.81;6116054;23;20100;-80
2023/08/30 02:45:15;;;;;;;3.10;1.40;;;;;;;21.55;61.26;100050.41;6127311;23;20020;-79
2023/08/30 02:47:44;;;;;;;4.13;1.50;;;;;;;21.58;60.84;100049.13;6116415;23;20020;-78
2023/08/30 02:50:11;;;;;;;4.32;1.48;;;;;;;21.64;60.44;100047.41;6115354;23;20855;-77
2023/08/30 02:52:38;;;;;;;3.28;1.30;;;;;;;21.58;60.37;100035.63;6126893;23;20452;-80
2023/08/30 02:55:05;;;;;;;3.08;1.25;;;;;;;21.35;60.97;100012.72;6126032;23;20036;-80
2023/08/30 02:57:36;;;;;;;4.72;1.30;;;;;;;21.42;61.04;100034.31;6123440;23;20433;-80
2023/08/30 03:00:05;;;;;;;5.38;1.50;;;;;;;21.40;61.61;100028.28;6114570;23;20071;-79
2023/08/30 03:02:37;;;;;;;3.85;1.45;;;;;;;21.54;61.60;100042.50;6134154;23;20079;-80
2023/08/30 03:05:04;;;;;;;;;;;;;;;21.58;60.96;100037.47;6128643;23;20047;-77
2023/08/30 03:07:31;;;;;;;1.70;1.25;;;;;;;21.03;61.40;99949.91;6134515;23;20275;-77
2023/08/30 03:09:58;;;;;;;2.97;1.00;;;;;;;21.47;61.30;100015.56;6115061;23;20060;-78
2023/08/30 03:12:25;;;;;;;5.15;1.60;;;;;;;21.22;61.27;99976.94;6131146;23;20024;-79
2023/08/30 03:14:51;;;;;;;4.93;1.63;;;;;;;21.55;60.72;100039.59;6136563;23;20577;-80
2023/08/30 03:17:18;;;;;;;1.95;1.10;;;;;;;21.59;62.00;100033.75;6151606;23;20525;-81
2023/08/30 03:19:45;;;;;;;1.85;1.02;;;;;;;21.65;60.74;100036.38;6107554;23;20546;-79
2023/08/30 03:22:12;;;;;;;4.85;1.33;;;;;;;21.53;60.46;100025.50;6130149;23;20017;-79
2023/08/30 03:24:40;;;;;;;5.18;1.33;;;;;;;21.54;60.48;100031.72;6120276;23;20407;-80
2023/08/30 03:27:08;;;;;;;1.73;1.35;;;;;;;21.50;60.84;100036.72;6156092;23;20017;-79
2023/08/30 03:29:35;;;;;;;2.75;1.00;;;;;;;21.32;60.93;100013.19;6128209;23;20341;-79
2023/08/30 03:32:02;;;;;;;3.15;1.38;;;;;;;21.30;60.92;100009.03;6129237;23;20017;-79
2023/08/30 03:34:29;;;;;;;5.43;1.48;;;;;;;21.27;60.91;100006.81;6127572;23;20068;-78
2023/08/30 03:36:57;;;;;;;6.55;1.33;;;;;;;21.42;60.84;100028.91;6126283;23;20088;-79
2023/08/30 03:39:24;;;;;;;2.70;1.40;;;;;;;21.31;60.90;100013.38;6120127;23;20025;-78
2023/08/30 03:41:51;;;;;;;6.97;1.38;;;;;;;21.26;61.79;99983.53;6119579;23;20079;-78
2023/08/30 03:44:18;;;;;;;2.83;1.20;;;;;;;21.64;61.14;100036.59;6125737;23;20024;-80
2023/08/30 03:46:45;;;;;;;1.80;0.90;;;;;;;21.60;60.70;100024.59;6126094;23;20108;-80
2023/08/30 03:49:16;;;;;;;4.95;1.67;;;;;;;21.58;60.98;100022.13;6119279;23;20021;-80
2023/08/30 03:51:43;;;;;;;3.78;1.10;;;;;;;21.61;61.66;100021.66;6152570;23;20021;-79
2023/08/30 03:54:13;;;;;;;2.60;1.00;;;;;;;21.44;60.79;99999.81;6118234;23;20025;-78
2023/08/30 03:56:40;;;;;;;3.70;1.38;;;;;;;21.60;60.40;100040.78;6115743;23;20036;-78
2023/08/30 03:59:07;;;;;;;2.97;1.27;;;;;;;21.48;61.33;100016.38;6116237;23;20044;-78
2023/08/30 04:01:34;;;;;;;1.80;1.10;;;;;;;21.68;61.62;100043.22;6147730;23;20425;-78
2023/08/30 04:04:01;;;;;;;5.10;1.10;;;;;;;21.58;60.95;100032.94;6140267;23;20028;-80
2023/08/30 04:06:28;;;;;;;5.00;1.15;;;;;;;21.73;60.76;100059.59;6128861;23;20492;-78
2023/08/30 04:08:55;;;;;;;3.63;1.20;;;;;;;21.72;60.85;100042.56;6133446;23;20104;-79
2023/08/30 04:11:22;;;;;;;6.85;1.15;;;;;;;20.59;60.60;99856.50;6115606;23;20100;-78
2023/08/30 04:13:52;;;;;;;4.45;1.10;;;;;;;21.63;59.55;100034.97;6124564;23;20035;-78
2023/08/30 04:16:19;;;;;;;5.13;1.63;;;;;;;21.61;59.80;100039.75;6113936;23;20017;-80
2023/08/30 04:18:46;;;;;;;3.30;1.40;;;;;;;21.62;60.22;100061.13;6129235;23;20017;-80
2023/08/30 04:21:13;;;;;;;1.17;0.82;;;;;;;21.68;61.44;100048.63;6125180;23;20040;-80
2023/08/30 04:23:40;;;;;;;3.38;1.70;;;;;;;21.71;60.39;100048.16;6121764;23;20088;-79
2023/08/30 04:26:06;;;;;;;2.17;1.10;;;;;;;21.77;61.23;100074.28;6122979;23;20762;-79
2023/08/30 04:28:33;;;;;;;4.10;1.45;;;;;;;21.68;61.25;100057.53;6129765;23;20025;-79
2023/08/30 04:31:00;;;;;;;6.95;2.15;;;;;;;21.69;61.24;100061.88;6111299;23;20472;-78
2023/08/30 04:33:27;;;;;;;9.50;1.50;;;;;;;21.81;61.54;100067.38;6141290;23;20029;-79
2023/08/30 04:35:55;;;;;;;6.47;2.03;;;;;;;21.50;61.27;100009.72;6132636;23;20380;-79
2023/08/30 04:38:22;;;;;;;4.00;1.70;;;;;;;21.77;61.09;100077.81;6122914;23;20025;-78
2023/08/30 04:40:49;;;;;;;17.10;3.08;;;;;;;21.68;61.06;100081.03;6124739;23;20076;-79
2023/08/30 04:43:16;;;;;;;6.45;2.03;;;;;;;21.31;61.96;100048.47;6160204;23;20033;-80
2023/08/30 04:45:42;;;;;;;4.97;2.15;;;;;;;21.45;62.24;100095.97;6122916;23;20109;-80
2023/08/30 04:48:13;;;;;;;3.88;1.77;;;;;;;21.37;62.32;100085.41;6159488;23;20024;-79
2023/08/30 04:50:41;;;;;;;3.13;1.73;;;;;;;21.20;62.79;100070.81;6125946;23;20021;-80
2023/08/30 04:53:08;;;;;;;3.65;1.70;;;;;;;21.26;62.92;100091.50;6097436;23;20040;-79
2023/08/30 04:55:35;;;;;;;5.07;2.45;;;;;;;21.02;63.11;100060.75;6085117;23;20024;-78
2023/08/30 04:58:05;;;;;;;5.47;2.13;;;;;;;21.22;63.47;100093.00;6146058;23;20021;-79
2023/08/30 05:00:33;;;;;;;4.93;1.85;;;;;;;21.23;63.23;100095.47;6122633;23;20029;-79
2023/08/30 05:03:00;;;;;;;5.70;1.92;;;;;;;21.19;63.24;100088.88;6131202;23;20257;-79
2023/08/30 05:05:27;;;;;;;3.47;1.58;;;;;;;21.21;63.15;100088.63;6159163;23;20128;-78
2023/08/30 05:07:54;;;;;;;5.18;2.08;;;;;;;21.19;62.94;100085.34;6132857;23;20132;-78
2023/08/30 05:10:23;;;;;;;10.45;1.80;;;;;;;21.16;63.23;100100.09;6125497;23;20492;-81
2023/08/30 05:12:51;;;;;;;6.13;1.92;;;;;;;21.20;63.48;100100.50;6104177;23;20044;-79
2023/08/30 05:15:19;;;;;;;4.07;1.58;;;;;;;21.17;63.53;100087.44;6114401;23;20092;-80
2023/08/30 05:17:46;;;;;;;5.38;1.98;;;;;;;21.35;63.51;100101.00;6121564;23;20020;-79
2023/08/30 05:20:13;;;;;;;7.53;1.90;;;;;;;21.32;63.21;100077.97;6119647;23;20023;-79
2023/08/30 05:22:40;;;;;;;5.50;1.70;;;;;;;21.45;63.08;100093.25;6110897;23;20029;-81
2023/08/30 05:25:07;;;;;;;4.35;1.45;;;;;;;21.58;63.92;100097.75;6130678;23;20032;-79
2023/08/30 05:27:36;;;;;;;7.35;1.80;;;;;;;21.60;62.79;100097.50;6110266;23;20086;-78
2023/08/30 05:30:06;;;;;;;9.73;2.22;;;;;;;21.52;62.61;100090.50;6125527;23;20083;-78
2023/08/30 05:32:33;;;;;;;5.22;2.33;;;;;;;20.72;62.77;99960.72;6144666;23;20071;-79
2023/08/30 05:35:00;;;;;;;8.40;2.65;;;;;;;21.50;62.54;100090.72;6113778;23;20378;-78
2023/08/30 05:37:27;;;;;;;5.32;2.63;;;;;;;21.56;62.97;100113.34;6118599;23;20465;-80
2023/08/30 05:39:54;;;;;;;8.80;2.80;;;;;;;21.47;62.96;100120.06;6151577;23;20021;-80
2023/08/30 05:42:21;;;;;;;7.57;2.83;;;;;;;21.50;63.08;100123.13;6117598;23;20024;-77
2023/08/30 05:44:47;;;;;;;11.07;2.40;;;;;;;21.36;63.36;100118.88;6117166;23;20020;-79
2023/08/30 05:47:16;;;;;;;8.82;2.78;;;;;;;21.29;63.44;100107.28;6156773;23;20017;-78
2023/08/30 05:49:43;;;;;;;16.20;3.35;;;;;;;21.24;63.47;100105.25;6133538;23;20554;-77
2023/08/30 05:52:10;;;;;;;6.30;2.95;;;;;;;21.37;63.87;100120.50;6130917;23;20021;-79
2023/08/30 05:54:42;;;;;;;4.13;1.98;;;;;;;20.88;63.33;100043.84;6115375;23;20024;-78
2023/08/30 05:57:09;;;;;;;9.98;2.58;;;;;;;21.12;63.44;100088.09;6125417;23;20256;-77
2023/08/30 05:59:36;;;;;;;8.60;2.80;;;;;;;21.40;63.79;100132.78;6104087;23;20017;-78
2023/08/30 06:02:04;;;;;;;7.28;2.80;;;;;;;21.40;63.20;100130.91;6129797;23;20025;-78
2023/08/30 06:04:31;;;;;;;7.13;2.83;;;;;;;21.40;63.36;100136.28;6114151;23;20021;-77
2023/08/30 06:07:01;;;;;;;16.65;2.25;;;;;;;21.33;63.04;100130.91;6140614;23;20185;-79
2023/08/30 06:09:27;;;;;;;14.93;3.00;;;;;;;21.06;63.18;100083.56;6121370;23;20330;-79
2023/08/30 06:11:54;;;;;;;12.07;2.80;;;;;;;21.16;62.73;100089.28;6125939;23;20020;-78
2023/08/30 06:14:22;;;;;;;7.50;2.53;;;;;;;21.47;62.52;100145.19;6124921;23;20042;-77
2023/08/30 06:16:53;;;;;;;8.13;3.00;;;;;;;20.91;61.91;100059.59;6140566;23;20088;-79
2023/08/30 06:19:20;;;;;;;7.55;3.53;;;;;;;21.33;62.56;100144.41;6110747;23;20051;-78
2023/08/30 06:21:47;;;;;;;8.07;2.95;;;;;;;21.29;62.98;100158.59;6119647;23;20024;-79
2023/08/30 06:24:14;;;;;;;10.98;2.85;;;;;;;21.37;63.43;100171.81;6131994;23;20028;-78
2023/08/30 06:26:41;;;;;;;8.55;3.35;;;;;;;21.25;63.35;100152.78;6121251;23;20029;-79
2023/08/30 06:29:10;;;;;;;8.60;3.03;;;;;;;21.40;63.29;100181.38;6151855;23;20013;-78
2023/08/30 06:31:39;;;;;;;7.28;3.58;;;;;;;21.34;62.88;100173.06;6121131;23;20296;-78
2023/08/30 06:34:06;;;;;;;8.25;2.88;;;;;;;21.37;63.18;100198.81;6111675;23;20441;-79
2023/08/30 06:36:34;;;;;;;12.85;3.42;;;;;;;21.39;63.90;100196.75;6118140;23;20718;-79
2023/08/30 06:39:01;;;;;;;12.90;3.75;;;;;;;21.19;63.73;100164.47;6109435;23;20472;-78
2023/08/30 06:41:31;;;;;;;8.15;3.47;;;;;;;21.41;63.56;100183.88;6140927;23;20013;-79
2023/08/30 06:44:01;;;;;;;8.07;3.47;;;;;;;21.10;64.10;100118.00;6121797;23;20056;-78
2023/08/30 06:46:28;;;;;;;6.63;2.28;;;;;;;21.55;64.41;100185.44;6107891;23;20276;-77
2023/08/30 06:48:55;;;;;;;4.63;2.60;;;;;;;21.54;64.54;100151.34;6122225;23;20017;-80
2023/08/30 06:51:25;;;;;;;8.90;2.97;;;;;;;21.82;62.87;100174.44;6126988;23;20023;-80
2023/08/30 06:53:55;;;;;;;10.38;3.50;;;;;;;21.82;60.42;100152.81;6112727;23;20021;-77
2023/08/30 06:56:22;;;;;;;12.07;3.75;;;;;;;22.03;60.64;100191.28;6120314;23;20371;-79
2023/08/30 06:58:53;;;;;;;5.85;2.60;;;;;;;21.97;60.78;100183.03;6104205;23;20238;-79
2023/08/30 07:01:20;;;;;;;13.57;2.72;;;;;;;22.05;61.10;100181.09;6119603;23;20507;-78
2023/08/30 07:03:47;;;;;;;9.60;2.55;;;;;;;22.18;59.96;100186.34;6118626;23;20321;-78
2023/08/30 07:06:14;;;;;;;5.32;2.08;;;;;;;22.28;60.01;100188.56;6111083;23;20059;-78
2023/08/30 07:08:41;;;;;;;10.77;2.28;;;;;;;22.25;59.50;100162.81;6105031;23;20374;-79
2023/08/30 07:11:10;;;;;;;7.25;2.30;;;;;;;22.29;58.31;100153.22;6125124;23;20385;-79
2023/08/30 07:13:58;;;;;;;6.32;2.17;;;;;;;22.49;57.28;100190.03;6118723;23;20414;-79
2023/08/30 07:16:24;;;;;;;10.27;2.30;;;;;;;22.35;56.96;100168.53;6131072;23;20484;-77
2023/08/30 07:18:51;;;;;;;4.80;1.63;;;;;;;22.44;58.00;100187.19;6129317;23;20108;-76
2023/08/30 07:21:18;;;;;;;11.43;1.85;;;;;;;22.40;57.52;100182.22;6123010;23;20017;-76
2023/08/30 07:23:45;;;;;;;4.03;1.88;;;;;;;22.48;58.88;100172.16;6129862;23;20025;-79
2023/08/30 07:26:13;;;;;;;2.55;1.67;;;;;;;22.77;56.56;100198.44;6105208;23;20079;-80
2023/08/30 07:28:44;;;;;;;8.18;1.77;;;;;;;22.83;55.26;100191.28;6116324;23;20017;-78
2023/08/30 07:31:14;;;;;;;4.20;2.07;;;;;;;22.71;56.61;100169.56;6121913;23;20044;-78
2023/08/30 07:33:41;;;;;;;5.10;1.50;;;;;;;22.60;54.88;100135.19;6141627;23;20265;-76
2023/08/30 07:36:08;;;;;;;3.60;1.23;;;;;;;22.97;54.78;100195.50;6083823;23;20017;-77
2023/08/30 07:38:38;;;;;;;6.38;1.70;;;;;;;22.81;55.26;100164.44;6115570;23;20021;-80
2023/08/30 07:41:05;;;;;;;6.05;1.58;;;;;;;23.01;55.04;100177.78;6157288;23;20088;-79
2023/08/30 07:43:31;;;;;;;2.20;1.27;;;;;;;22.70;53.90;100121.13;6108510;23;20327;-77
2023/08/30 07:46:02;;;;;;;3.47;1.30;;;;;;;22.99;53.15;100189.91;6125387;23;20063;-79
2023/08/30 07:48:28;;;;;;;5.32;1.67;;;;;;;23.07;53.77;100197.69;6123526;23;20088;-77
2023/08/30 07:50:55;;;;;;;4.35;1.30;;;;;;;23.12;53.36;100197.00;6124263;23;20338;-79
2023/08/30 07:53:22;;;;;;;3.60;1.10;;;;;;;23.21;55.02;100193.75;6131481;23;20021;-79
2023/08/30 07:55:50;;;;;;;1.88;1.20;;;;;;;23.28;53.69;100200.94;6124635;23;20021;-80
2023/08/30 07:58:17;;;;;;;1.25;0.77;;;;;;;23.17;54.42;100176.31;6139554;23;20025;-81
2023/08/30 08:00:44;;;;;;;1.50;0.75;;;;;;;23.04;52.89;100138.59;6114388;23;20025;-80
2023/08/30 08:03:11;;;;;;;5.38;1.40;;;;;;;23.54;55.25;100197.03;6141584;23;20052;-78
2023/08/30 08:05:38;;;;;;;2.78;1.42;;;;;;;23.77;55.52;100210.66;6145664;23;20096;-78
2023/08/30 08:08:07;;;;;;;2.55;1.23;;;;;;;23.85;52.03;100204.88;6123982;23;20025;-79
2023/08/30 08:10:34;;;;;;;1.92;0.90;;;;;;;23.89;51.32;100221.53;6136537;23;20056;-78
2023/08/30 08:13:02;;;;;;;2.58;0.88;;;;;;;23.56;50.12;100176.75;6152304;23;20021;-77
2023/08/30 08:15:33;;;;;;;3.33;1.40;;;;;;;23.74;53.05;100213.00;6111867;23;20430;-78
2023/08/30 08:18:04;;;;;;;1.95;0.88;;;;;;;23.63;53.90;100196.47;6084133;23;20328;-79
2023/08/30 08:20:39;;;;;;;1.92;0.82;;;;;;;24.08;52.56;100220.38;6087274;23;20061;-77
2023/08/30 08:23:05;;;;;;;1.73;1.00;;;;;;;24.18;53.38;100227.09;6119700;23;20020;-77
2023/08/30 08:25:33;;;;;;;1.90;0.63;;;;;;;23.93;49.46;100211.84;6106042;23;20723;-79
2023/08/30 08:28:01;;;;;;;2.40;1.05;;;;;;;23.88;52.79;100198.19;6091996;23;20017;-79
2023/08/30 08:30:28;;;;;;;1.00;0.60;;;;;;;24.08;52.77;100231.22;6141878;23;20021;-77
2023/08/30 08:32:57;;;;;;;0.75;0.63;;;;;;;23.80;49.49;100202.06;6095314;23;20529;-79
2023/08/30 08:35:24;;;;;;;2.20;1.08;;;;;;;23.94;53.33;100226.25;6111715;23;20369;-79
2023/08/30 08:37:51;;;;;;;0.93;0.65;;;;;;;23.95;51.06;100225.19;6124952;23;20028;-79
2023/08/30 08:40:18;;;;;;;2.80;1.17;;;;;;;23.65;53.21;100156.41;6102926;23;20048;-78
2023/08/30 08:42:58;;;;;;;2.08;0.80;;;;;;;24.28;54.86;100235.47;6115278;23;20033;-79
2023/08/30 08:45:26;;;;;;;1.10;0.85;;;;;;;24.09;53.47;100192.19;6105321;23;20021;-79
2023/08/30 08:47:57;;;;;;;1.08;0.60;;;;;;;23.95;49.93;100185.34;6121084;23;20234;-81
2023/08/30 08:50:29;;;;;;;;;;;;;;;23.67;47.78;100158.91;6110930;23;20389;-81
2023/08/30 08:53:01;;;;;;;1.17;0.70;;;;;;;24.12;51.42;100219.91;6123649;23;19920;-79
2023/08/30 08:55:31;;;;;;;2.35;0.90;;;;;;;24.45;53.60;100241.84;6141831;23;20323;-81
2023/08/30 08:57:59;;;;;;;1.33;0.70;;;;;;;24.59;52.48;100249.75;6114705;23;20453;-76
2023/08/30 09:00:26;;;;;;;1.23;0.70;;;;;;;24.64;50.72;100247.16;6141882;23;20315;-79
2023/08/30 09:02:54;;;;;;;0.95;0.70;;;;;;;24.80;52.73;100240.16;6127091;23;20052;-78
2023/08/30 09:05:22;;;;;;;1.77;0.47;;;;;;;24.82;52.65;100230.72;6141361;23;20264;-82
2023/08/30 09:07:53;;;;;;;1.92;0.63;;;;;;;24.76;50.17;100215.41;6132706;23;20032;-78
2023/08/30 09:10:21;;;;;;;4.95;1.02;;;;;;;24.74;53.14;100217.53;6112885;23;20029;-81
2023/08/30 09:12:49;;;;;;;0.70;0.63;;;;;;;24.75;48.15;100249.03;6119582;23;20678;-77
2023/08/30 09:15:18;;;;;;;2.38;0.60;;;;;;;24.52;48.57;100229.00;6111633;23;20079;-77
2023/08/30 09:17:48;;;;;;;1.30;0.80;;;;;;;24.10;51.79;100141.47;6116194;23;20021;-77
2023/08/30 09:20:20;;;;;;;1.58;0.60;;;;;;;24.59;49.75;100249.75;6160266;23;20017;-78
2023/08/30 09:22:47;;;;;;;0.95;0.52;;;;;;;24.66;51.18;100235.00;6129083;23;20489;-77
2023/08/30 09:25:26;;;;;;;1.48;0.40;;;;;;;24.42;50.36;100187.19;6128458;23;20488;-76
2023/08/30 09:27:59;;;;;;;0.60;0.50;;;;;;;24.65;48.29;100240.66;6113925;23;20021;-77
2023/08/30 09:30:26;;;;;;;0.60;0.43;;;;;;;24.94;49.25;100261.38;6142576;23;20290;-77
2023/08/30 09:32:53;;;;;;;0.60;0.43;;;;;;;25.01;51.94;100246.84;6116926;23;20023;-78
2023/08/30 09:35:20;;;;;;;1.35;0.50;;;;;;;25.10;49.69;100256.28;6107810;23;20395;-77
2023/08/30 09:37:47;;;;;;;1.23;0.40;;;;;;;24.92;48.55;100230.09;6111225;23;20017;-77
2023/08/30 09:40:19;;;;;;;0.82;0.50;;;;;;;25.10;48.01;100240.00;6115625;23;20072;-78
2023/08/30 09:42:46;;;;;;;0.77;0.52;;;;;;;25.41;50.76;100235.16;6114400;23;20219;-76
2023/08/30 09:45:33;;;;;;;0.63;0.60;;;;;;;25.61;50.25;100265.44;6141392;23;20326;-77
2023/08/30 09:48:01;;;;;;;0.80;0.50;;;;;;;25.57;48.98;100253.41;6118290;23;20499;-79
2023/08/30 09:50:31;;;;;;;1.85;0.50;;;;;;;25.69;48.51;100254.16;6122138;23;20028;-77
2023/08/30 09:53:06;;;;;;;0.40;0.37;;;;;;;25.67;45.72;100253.56;6115956;23;20100;-80
2023/08/30 09:55:33;;;;;;;2.13;0.43;;;;;;;25.75;45.85;100261.34;6133991;23;20048;-78
2023/08/30 09:58:02;;;;;;;1.38;0.50;;;;;;;25.87;47.64;100282.22;6132405;23;20041;-79
2023/08/30 10:00:36;;;;;;;1.35;0.45;;;;;;;25.96;48.88;100278.03;6141289;23;20025;-79
2023/08/30 10:03:04;;;;;;;0.43;0.38;;;;;;;26.00;46.00;100273.75;6119131;23;20025;-80
2023/08/30 10:05:35;;;;;;;;;;;;;;;25.95;46.37;100270.97;6122631;23;20127;-78
2023/08/30 10:08:03;;;;;;;0.85;0.80;;;;;;;26.08;43.56;100240.69;6141379;23;19927;-77
2023/08/30 10:10:31;;;;;;;1.33;0.70;;;;;;;26.14;44.92;100247.88;6117690;23;20103;-76
2023/08/30 10:13:01;;;;;;;1.52;0.55;;;;;;;26.19;47.65;100272.44;6115899;23;20220;-79
2023/08/30 10:15:44;;;;;;;1.13;0.70;;;;;;;26.20;45.36;100252.31;6124174;23;20075;-77
2023/08/30 10:18:16;;;;;;;1.95;0.70;;;;;;;26.37;46.87;100265.91;6138275;23;20029;-77
2023/08/30 10:20:45;;;;;;;0.40;0.30;;;;;;;26.34;45.90;100260.16;6123495;23;20443;-77
2023/08/30 10:23:14;;;;;;;2.10;0.68;;;;;;;26.32;47.41;100245.97;6129235;23;20028;-78
2023/08/30 10:25:45;;;;;;;0.55;0.30;;;;;;;26.44;42.28;100274.72;6117690;23;20013;-79
2023/08/30 10:28:16;;;;;;;0.40;0.20;;;;;;;26.49;42.40;100270.44;6128850;23;20416;-78
2023/08/30 10:30:43;;;;;;;0.20;0.20;;;;;;;26.38;43.33;100245.78;6133669;23;20753;-79
2023/08/30 10:33:14;;;;;;;1.65;0.45;;;;;;;26.62;43.10;100265.47;6134458;23;20038;-79
2023/08/30 10:35:51;;;;;;;0.95;0.40;;;;;;;26.76;46.88;100256.97;6119424;23;20017;-78
2023/08/30 10:38:26;;;;;;;1.17;0.65;;;;;;;26.97;41.16;100258.06;6138345;23;20439;-77
2023/08/30 10:40:54;;;;;;;3.58;0.38;;;;;;;26.78;44.45;100217.50;6123816;23;20024;-78
2023/08/30 10:43:34;;;;;;;1.23;0.70;;;;;;;27.23;46.61;100249.13;6117224;23;20241;-78
2023/08/30 10:46:11;;;;;;;1.50;0.50;;;;;;;27.23;44.44;100237.41;6109645;23;20027;-78
2023/08/30 10:48:42;;;;;;;4.82;0.73;;;;;;;27.32;43.73;100248.69;6103113;23;20280;-78
2023/08/30 10:51:22;;;;;;;;;;;;;;;27.41;43.39;100250.69;6152773;23;20021;-78
2023/08/30 10:53:58;;;;;;;0.80;0.40;;;;;;;27.65;45.73;100244.94;6118942;23;19920;-78
2023/08/30 10:56:29;;;;;;;1.08;0.40;;;;;;;27.34;40.92;100219.28;6114251;23;20149;-79
2023/08/30 10:58:57;;;;;;;0.40;0.30;;;;;;;27.44;43.76;100233.81;6111366;23;20488;-79
2023/08/30 11:01:24;;;;;;;3.38;0.60;;;;;;;27.60;43.95;100220.31;6123293;23;20377;-78
2023/08/30 11:03:54;;;;;;;1.00;0.47;;;;;;;27.83;41.70;100241.84;6129479;23;20025;-80
2023/08/30 11:06:40;;;;;;;1.20;0.40;;;;;;;28.02;43.93;100238.72;6142041;23;20025;-78
2023/08/30 11:09:07;;;;;;;0.73;0.40;;;;;;;27.81;43.23;100211.25;6132325;23;20025;-81
2023/08/30 11:11:37;;;;;;;0.63;0.30;;;;;;;27.88;42.69;100233.69;6128401;23;20253;-79
2023/08/30 11:14:06;;;;;;;0.63;0.55;;;;;;;27.83;43.72;100230.94;6136873;23;20021;-79
2023/08/30 11:16:34;;;;;;;0.95;0.50;;;;;;;27.68;41.02;100174.31;6127267;23;20031;-80
2023/08/30 11:19:04;;;;;;;0.52;0.30;;;;;;;27.73;42.80;100186.38;6114986;23;20470;-78
2023/08/30 11:21:34;;;;;;;1.23;0.40;;;;;;;27.97;40.96;100208.69;6130207;23;20112;-79
2023/08/30 11:24:03;;;;;;;0.20;0.20;;;;;;;28.19;41.12;100228.47;6150559;23;20330;-78
2023/08/30 11:26:30;;;;;;;0.70;0.40;;;;;;;28.15;40.14;100210.97;6102954;23;20520;-79
2023/08/30 11:28:57;;;;;;;2.22;0.68;;;;;;;28.24;40.16;100225.78;6131225;23;20021;-78
2023/08/30 11:31:27;;;;;;;3.10;0.47;;;;;;;28.03;39.56;100229.44;6111982;23;20025;-80
2023/08/30 11:33:56;;;;;;;0.77;0.30;;;;;;;27.85;43.07;100215.13;6109907;23;20024;-78
2023/08/30 11:36:29;;;;;;;0.98;0.38;;;;;;;27.82;42.49;100209.38;6103969;23;20272;-81